sensor_id;sensor_type;location;lat;lon;timestamp;pressure;altitude;pressure_sealevel;temperature;humidity
78123;BME280;67376;44.802;10.332;2024-01-10T00:01:27;102126.38;;;19.60;39.72
78123;BME280;67376;44.802;10.332;2024-01-10T00:03:53;102127.63;;;19.58;39.67
78123;BME280;67376;44.802;10.332;2024-01-10T00:06:18;102129.28;;;19.59;39.55
78123;BME280;67376;44.802;10.332;2024-01-10T00:08:44;102133.44;;;19.55;40.00
78123;BME280;67376;44.802;10.332;2024-01-10T00:11:09;102131.81;;;19.60;39.42
78123;BME280;67376;44.802;10.332;2024-01-10T00:13:34;102131.81;;;19.60;39.79
78123;BME280;67376;44.802;10.332;2024-01-10T00:16:00;102131.56;;;19.55;39.91
78123;BME280;67376;44.802;10.332;2024-01-10T00:18:25;102138.84;;;19.55;39.65
78123;BME280;67376;44.802;10.332;2024-01-10T00:20:53;102142.19;;;19.57;39.46
78123;BME280;67376;44.802;10.332;2024-01-10T00:23:21;102135.94;;;19.56;39.76
78123;BME280;67376;44.802;10.332;2024-01-10T00:25:47;102135.50;;;19.53;39.11
78123;BME280;67376;44.802;10.332;2024-01-10T00:28:13;102136.34;;;19.53;39.94
78123;BME280;67376;44.802;10.332;2024-01-10T00:30:38;102138.84;;;19.55;38.89
78123;BME280;67376;44.802;10.332;2024-01-10T00:33:04;102138.00;;;19.54;39.58
78123;BME280;67376;44.802;10.332;2024-01-10T00:35:30;102141.56;;;19.55;39.52
78123;BME280;67376;44.802;10.332;2024-01-10T00:37:55;102136.34;;;19.53;39.87
78123;BME280;67376;44.802;10.332;2024-01-10T00:40:20;102143.44;;;19.54;39.87
78123;BME280;67376;44.802;10.332;2024-01-10T00:42:45;102141.94;;;19.52;39.56
78123;BME280;67376;44.802;10.332;2024-01-10T00:45:10;102140.44;;;19.49;39.24
78123;BME280;67376;44.802;10.332;2024-01-10T00:47:36;102140.44;;;19.49;39.91
78123;BME280;67376;44.802;10.332;2024-01-10T00:50:01;102143.34;;;19.48;39.50
78123;BME280;67376;44.802;10.332;2024-01-10T00:52:26;102140.25;;;19.51;39.83
78123;BME280;67376;44.802;10.332;2024-01-10T00:54:51;102145.66;;;19.51;39.80
78123;BME280;67376;44.802;10.332;2024-01-10T00:57:17;102144.81;;;19.50;39.18
78123;BME280;67376;44.802;10.332;2024-01-10T00:59:42;102143.34;;;19.48;39.20
78123;BME280;67376;44.802;10.332;2024-01-10T01:02:07;102140.91;;;19.53;39.57
78123;BME280;67376;44.802;10.332;2024-01-10T01:04:32;102142.09;;;19.50;39.14
78123;BME280;67376;44.802;10.332;2024-01-10T01:06:58;102138.56;;;19.50;39.39
78123;BME280;67376;44.802;10.332;2024-01-10T01:09:23;102135.78;;;19.43;39.70
78123;BME280;67376;44.802;10.332;2024-01-10T01:11:49;102138.13;;;19.46;39.71
78123;BME280;67376;44.802;10.332;2024-01-10T01:14:14;102143.53;;;19.46;39.67
78123;BME280;67376;44.802;10.332;2024-01-10T01:16:39;102136.44;;;19.45;39.74
78123;BME280;67376;44.802;10.332;2024-01-10T01:19:04;102144.75;;;19.43;39.51
78123;BME280;67376;44.802;10.332;2024-01-10T01:21:30;102143.94;;;19.43;39.91
78123;BME280;67376;44.802;10.332;2024-01-10T01:23:55;102144.56;;;19.45;39.87
78123;BME280;67376;44.802;10.332;2024-01-10T01:26:20;102146.00;;;19.41;39.92
78123;BME280;67376;44.802;10.332;2024-01-10T01:28:45;102144.56;;;19.45;39.73
78123;BME280;67376;44.802;10.332;2024-01-10T01:31:11;102155.78;;;19.42;39.84
78123;BME280;67376;44.802;10.332;2024-01-10T01:33:36;102164.50;;;19.37;39.89
78123;BME280;67376;44.802;10.332;2024-01-10T01:36:01;102160.38;;;19.41;39.83
78123;BME280;67376;44.802;10.332;2024-01-10T01:38:26;102157.22;;;19.38;39.79
78123;BME280;67376;44.802;10.332;2024-01-10T01:40:52;102157.00;;;19.39;39.75
78123;BME280;67376;44.802;10.332;2024-01-10T01:43:20;102157.84;;;19.40;39.28
78123;BME280;67376;44.802;10.332;2024-01-10T01:45:47;102169.53;;;19.40;39.84
78123;BME280;67376;44.802;10.332;2024-01-10T01:48:15;102163.47;;;19.38;39.80
78123;BME280;67376;44.802;10.332;2024-01-10T01:50:40;102165.34;;;19.38;39.68
78123;BME280;67376;44.802;10.332;2024-01-10T01:53:06;102167.22;;;19.37;39.79
78123;BME280;67376;44.802;10.332;2024-01-10T01:55:31;102163.00;;;19.35;39.79
78123;BME280;67376;44.802;10.332;2024-01-10T01:57:56;102172.38;;;19.32;38.91
78123;BME280;67376;44.802;10.332;2024-01-10T02:00:22;102171.13;;;19.35;39.63
78123;BME280;67376;44.802;10.332;2024-01-10T02:02:47;102173.00;;;19.34;39.83
78123;BME280;67376;44.802;10.332;2024-01-10T02:05:13;102177.78;;;19.32;39.75
78123;BME280;67376;44.802;10.332;2024-01-10T02:07:40;102172.38;;;19.32;38.94
78123;BME280;67376;44.802;10.332;2024-01-10T02:10:05;102171.53;;;19.32;39.70
78123;BME280;67376;44.802;10.332;2024-01-10T02:12:31;102169.47;;;19.34;38.85
78123;BME280;67376;44.802;10.332;2024-01-10T02:14:56;102163.00;;;19.35;39.74
78123;BME280;67376;44.802;10.332;2024-01-10T02:17:21;102167.78;;;19.33;39.35
78123;BME280;67376;44.802;10.332;2024-01-10T02:19:46;102172.09;;;19.27;39.98
78123;BME280;67376;44.802;10.332;2024-01-10T02:22:12;102177.06;;;19.24;40.03
78123;BME280;67376;44.802;10.332;2024-01-10T02:24:37;102179.66;;;19.32;38.99
78123;BME280;67376;44.802;10.332;2024-01-10T02:27:03;102181.25;;;19.26;39.43
78123;BME280;67376;44.802;10.332;2024-01-10T02:29:28;102185.44;;;19.29;39.12
78123;BME280;67376;44.802;10.332;2024-01-10T02:31:53;102189.19;;;19.28;39.30
78123;BME280;67376;44.802;10.332;2024-01-10T02:34:18;102186.69;;;19.26;38.93
78123;BME280;67376;44.802;10.332;2024-01-10T02:36:44;102184.16;;;19.25;39.80
78123;BME280;67376;44.802;10.332;2024-01-10T02:39:10;102185.84;;;19.26;38.99
78123;BME280;67376;44.802;10.332;2024-01-10T02:41:35;102187.06;;;19.23;39.45
78123;BME280;67376;44.802;10.332;2024-01-10T02:44:00;102185.00;;;19.25;39.74
78123;BME280;67376;44.802;10.332;2024-01-10T02:46:26;102182.69;;;19.22;39.91
78123;BME280;67376;44.802;10.332;2024-01-10T02:48:54;102177.25;;;19.22;40.06
78123;BME280;67376;44.802;10.332;2024-01-10T02:51:20;102174.81;;;19.27;39.91
78123;BME280;67376;44.802;10.332;2024-01-10T02:53:46;102174.56;;;19.22;39.98
78123;BME280;67376;44.802;10.332;2024-01-10T02:56:11;102166.44;;;19.22;39.94
78123;BME280;67376;44.802;10.332;2024-01-10T02:58:36;102161.22;;;19.21;39.75
78123;BME280;67376;44.802;10.332;2024-01-10T03:01:02;102168.50;;;19.20;39.10
78123;BME280;67376;44.802;10.332;2024-01-10T03:03:27;102162.44;;;19.18;39.08
78123;BME280;67376;44.802;10.332;2024-01-10T03:05:52;102161.41;;;19.19;39.88
78123;BME280;67376;44.802;10.332;2024-01-10T03:08:17;102156.81;;;19.20;39.99
78123;BME280;67376;44.802;10.332;2024-01-10T03:10:43;102160.09;;;19.15;39.26
78123;BME280;67376;44.802;10.332;2024-01-10T03:13:08;102150.13;;;19.16;39.13
78123;BME280;67376;44.802;10.332;2024-01-10T03:15:33;102158.63;;;19.12;39.38
78123;BME280;67376;44.802;10.332;2024-01-10T03:17:58;102148.00;;;19.11;39.22
78123;BME280;67376;44.802;10.332;2024-01-10T03:20:24;102147.41;;;19.16;39.93
78123;BME280;67376;44.802;10.332;2024-01-10T03:22:49;102143.41;;;19.11;39.53
78123;BME280;67376;44.802;10.332;2024-01-10T03:25:14;102140.31;;;19.14;40.11
78123;BME280;67376;44.802;10.332;2024-01-10T03:27:39;102137.63;;;19.14;40.01
78123;BME280;67376;44.802;10.332;2024-01-10T03:30:05;102141.34;;;19.13;39.07
78123;BME280;67376;44.802;10.332;2024-01-10T03:32:30;102131.75;;;19.11;39.97
78123;BME280;67376;44.802;10.332;2024-01-10T03:34:57;102131.09;;;19.09;39.13
78123;BME280;67376;44.802;10.332;2024-01-10T03:37:22;102138.38;;;19.08;39.31
78123;BME280;67376;44.802;10.332;2024-01-10T03:39:47;102129.63;;;19.06;40.20
78123;BME280;67376;44.802;10.332;2024-01-10T03:42:12;102132.31;;;19.06;40.26
78123;BME280;67376;44.802;10.332;2024-01-10T03:44:38;102138.56;;;19.07;40.20
78123;BME280;67376;44.802;10.332;2024-01-10T03:47:03;102135.88;;;19.07;39.23
78123;BME280;67376;44.802;10.332;2024-01-10T03:49:28;102132.78;;;19.10;39.22
78123;BME280;67376;44.802;10.332;2024-01-10T03:51:53;102133.16;;;19.07;39.85
78123;BME280;67376;44.802;10.332;2024-01-10T03:54:19;102144.00;;;19.07;39.59
78123;BME280;67376;44.802;10.332;2024-01-10T03:56:44;102140.66;;;19.05;39.20
78123;BME280;67376;44.802;10.332;2024-01-10T03:59:09;102143.75;;;19.02;40.16
78123;BME280;67376;44.802;10.332;2024-01-10T04:01:34;102150.47;;;19.06;39.44
78123;BME280;67376;44.802;10.332;2024-01-10T04:04:00;102150.00;;;19.02;40.15
78123;BME280;67376;44.802;10.332;2024-01-10T04:06:25;102151.03;;;19.01;39.31
78123;BME280;67376;44.802;10.332;2024-01-10T04:08:51;102144.78;;;19.01;39.45
78123;BME280;67376;44.802;10.332;2024-01-10T04:11:16;102149.38;;;19.00;40.21
78123;BME280;67376;44.802;10.332;2024-01-10T04:13:41;102154.97;;;18.99;40.28
78123;BME280;67376;44.802;10.332;2024-01-10T04:16:07;102161.22;;;18.99;39.95
78123;BME280;67376;44.802;10.332;2024-01-10T04:18:32;102159.53;;;18.98;40.26
78123;BME280;67376;44.802;10.332;2024-01-10T04:20:57;102153.03;;;18.93;40.52
78123;BME280;67376;44.802;10.332;2024-01-10T04:23:22;102159.09;;;18.95;39.96
78123;BME280;67376;44.802;10.332;2024-01-10T04:25:48;102161.59;;;18.96;39.26
78123;BME280;67376;44.802;10.332;2024-01-10T04:28:13;102158.91;;;18.96;39.49
78123;BME280;67376;44.802;10.332;2024-01-10T04:30:38;102163.00;;;18.92;40.23
78123;BME280;67376;44.802;10.332;2024-01-10T04:33:04;102158.44;;;18.93;39.48
78123;BME280;67376;44.802;10.332;2024-01-10T04:35:29;102157.78;;;18.91;39.87
78123;BME280;67376;44.802;10.332;2024-01-10T04:37:54;102155.72;;;18.93;39.73
78123;BME280;67376;44.802;10.332;2024-01-10T04:40:19;102160.13;;;18.94;39.28
78123;BME280;67376;44.802;10.332;2024-01-10T04:42:45;102159.47;;;18.92;39.28
78123;BME280;67376;44.802;10.332;2024-01-10T04:45:10;102154.25;;;18.90;39.49
78123;BME280;67376;44.802;10.332;2024-01-10T04:47:35;102155.94;;;18.91;39.97
78123;BME280;67376;44.802;10.332;2024-01-10T04:50:00;102157.34;;;18.87;39.95
78123;BME280;67376;44.802;10.332;2024-01-10T04:52:26;102159.41;;;18.85;39.71
78123;BME280;67376;44.802;10.332;2024-01-10T04:54:51;102161.53;;;18.90;40.28
78123;BME280;67376;44.802;10.332;2024-01-10T04:57:16;102151.28;;;18.85;39.70
78123;BME280;67376;44.802;10.332;2024-01-10T04:59:41;102147.72;;;18.85;39.41
78123;BME280;67376;44.802;10.332;2024-01-10T05:02:07;102158.38;;;18.86;39.68
78123;BME280;67376;44.802;10.332;2024-01-10T05:04:32;102151.91;;;18.87;39.42
78123;BME280;67376;44.802;10.332;2024-01-10T05:06:57;102153.97;;;18.85;40.33
78123;BME280;67376;44.802;10.332;2024-01-10T05:09:23;102154.81;;;18.86;39.31
78123;BME280;67376;44.802;10.332;2024-01-10T05:11:48;102153.16;;;18.85;39.96
78123;BME280;67376;44.802;10.332;2024-01-10T05:14:16;102154.38;;;18.82;39.46
78123;BME280;67376;44.802;10.332;2024-01-10T05:16:41;102157.72;;;18.84;39.84
78123;BME280;67376;44.802;10.332;2024-01-10T05:19:06;102159.50;;;18.77;39.51
78123;BME280;67376;44.802;10.332;2024-01-10T05:21:33;102157.25;;;18.80;40.50
78123;BME280;67376;44.802;10.332;2024-01-10T05:23:58;102159.97;;;18.80;39.79
78123;BME280;67376;44.802;10.332;2024-01-10T05:26:24;102175.56;;;18.78;40.50
78123;BME280;67376;44.802;10.332;2024-01-10T05:28:49;102175.56;;;18.78;40.37
78123;BME280;67376;44.802;10.332;2024-01-10T05:31:14;102180.69;;;18.73;39.74
78123;BME280;67376;44.802;10.332;2024-01-10T05:33:40;102189.91;;;18.79;39.63
78123;BME280;67376;44.802;10.332;2024-01-10T05:36:07;102191.41;;;18.82;39.73
78123;BME280;67376;44.802;10.332;2024-01-10T05:38:33;102194.94;;;18.82;39.76
78123;BME280;67376;44.802;10.332;2024-01-10T05:40:58;102202.88;;;18.84;39.87
78123;BME280;67376;44.802;10.332;2024-01-10T05:43:23;102204.56;;;18.85;39.73
78123;BME280;67376;44.802;10.332;2024-01-10T05:45:49;102201.66;;;18.86;39.94
78123;BME280;67376;44.802;10.332;2024-01-10T05:48:14;102201.66;;;18.86;39.83
78123;BME280;67376;44.802;10.332;2024-01-10T05:50:39;102196.44;;;18.85;40.43
78123;BME280;67376;44.802;10.332;2024-01-10T05:53:05;102193.53;;;18.86;40.00
78123;BME280;67376;44.802;10.332;2024-01-10T05:55:30;102192.91;;;18.84;40.05
78123;BME280;67376;44.802;10.332;2024-01-10T05:57:55;102200.38;;;18.82;40.26
78123;BME280;67376;44.802;10.332;2024-01-10T06:00:20;102204.66;;;18.76;40.43
78123;BME280;67376;44.802;10.332;2024-01-10T06:02:46;102200.19;;;18.69;40.45
78123;BME280;67376;44.802;10.332;2024-01-10T06:05:11;102205.22;;;18.72;41.11
78123;BME280;67376;44.802;10.332;2024-01-10T06:07:37;102210.25;;;18.75;40.43
78123;BME280;67376;44.802;10.332;2024-01-10T06:10:03;102206.53;;;18.76;41.37
78123;BME280;67376;44.802;10.332;2024-01-10T06:12:28;102216.31;;;18.77;41.42
78123;BME280;67376;44.802;10.332;2024-01-10T06:14:54;102212.59;;;18.78;41.23
78123;BME280;67376;44.802;10.332;2024-01-10T06:17:19;102208.22;;;18.77;40.65
78123;BME280;67376;44.802;10.332;2024-01-10T06:19:44;102206.53;;;18.76;40.77
78123;BME280;67376;44.802;10.332;2024-01-10T06:22:10;102209.63;;;18.73;40.59
78123;BME280;67376;44.802;10.332;2024-01-10T06:24:36;102207.75;;;18.73;40.71
78123;BME280;67376;44.802;10.332;2024-01-10T06:27:02;102215.03;;;18.73;41.13
78123;BME280;67376;44.802;10.332;2024-01-10T06:29:28;102209.63;;;18.73;40.63
78123;BME280;67376;44.802;10.332;2024-01-10T06:31:53;102213.34;;;18.72;40.76
78123;BME280;67376;44.802;10.332;2024-01-10T06:34:18;102213.34;;;18.72;40.74
78123;BME280;67376;44.802;10.332;2024-01-10T06:36:43;102221.53;;;18.78;41.19
78123;BME280;67376;44.802;10.332;2024-01-10T06:39:09;102226.13;;;18.78;41.45
78123;BME280;67376;44.802;10.332;2024-01-10T06:41:37;102230.88;;;18.76;40.85
78123;BME280;67376;44.802;10.332;2024-01-10T06:44:03;102227.97;;;18.77;41.71
78123;BME280;67376;44.802;10.332;2024-01-10T06:46:29;102234.44;;;18.76;41.22
78123;BME280;67376;44.802;10.332;2024-01-10T06:48:55;102234.03;;;18.79;40.60
78123;BME280;67376;44.802;10.332;2024-01-10T06:51:20;102233.59;;;18.76;40.80
78123;BME280;67376;44.802;10.332;2024-01-10T06:53:46;102240.31;;;18.80;40.72
78123;BME280;67376;44.802;10.332;2024-01-10T06:56:11;102241.69;;;18.76;40.96
78123;BME280;67376;44.802;10.332;2024-01-10T06:58:37;102237.31;;;18.75;41.00
78123;BME280;67376;44.802;10.332;2024-01-10T07:01:02;102249.16;;;18.74;40.69
78123;BME280;67376;44.802;10.332;2024-01-10T07:03:30;102249.34;;;18.72;40.63
78123;BME280;67376;44.802;10.332;2024-01-10T07:05:55;102243.09;;;18.72;40.85
78123;BME280;67376;44.802;10.332;2024-01-10T07:08:22;102252.72;;;18.74;40.60
78123;BME280;67376;44.802;10.332;2024-01-10T07:10:47;102257.94;;;18.76;40.77
78123;BME280;67376;44.802;10.332;2024-01-10T07:13:12;102261.47;;;18.76;40.90
78123;BME280;67376;44.802;10.332;2024-01-10T07:15:38;102260.81;;;18.74;40.65
78123;BME280;67376;44.802;10.332;2024-01-10T07:18:03;102269.13;;;18.73;40.52
78123;BME280;67376;44.802;10.332;2024-01-10T07:20:29;102266.16;;;18.68;40.68
78123;BME280;67376;44.802;10.332;2024-01-10T07:22:54;102271.09;;;18.64;40.45
78123;BME280;67376;44.802;10.332;2024-01-10T07:25:19;102269.88;;;18.67;40.57
78123;BME280;67376;44.802;10.332;2024-01-10T07:27:47;102274.44;;;18.66;40.28
78123;BME280;67376;44.802;10.332;2024-01-10T07:30:12;102272.13;;;18.63;41.08
78123;BME280;67376;44.802;10.332;2024-01-10T07:32:43;102276.03;;;18.61;40.50
78123;BME280;67376;44.802;10.332;2024-01-10T07:35:09;102275.72;;;18.56;34.26
78123;BME280;67376;44.802;10.332;2024-01-10T07:37:36;102281.44;;;18.46;32.49
78123;BME280;67376;44.802;10.332;2024-01-10T07:40:01;102278.50;;;18.18;30.91
78123;BME280;67376;44.802;10.332;2024-01-10T07:42:28;102280.25;;;18.11;31.08
78123;BME280;67376;44.802;10.332;2024-01-10T07:44:54;102286.16;;;17.92;31.15
78123;BME280;67376;44.802;10.332;2024-01-10T07:47:19;102294.00;;;17.33;30.02
78123;BME280;67376;44.802;10.332;2024-01-10T07:49:44;102290.38;;;17.17;30.14
78123;BME280;67376;44.802;10.332;2024-01-10T07:52:09;102301.44;;;16.92;30.53
78123;BME280;67376;44.802;10.332;2024-01-10T07:54:35;102304.16;;;16.92;32.14
78123;BME280;67376;44.802;10.332;2024-01-10T07:57:00;102304.09;;;17.08;31.74
78123;BME280;67376;44.802;10.332;2024-01-10T07:59:25;102304.00;;;17.24;32.58
78123;BME280;67376;44.802;10.332;2024-01-10T08:01:55;102300.00;;;17.43;32.80
78123;BME280;67376;44.802;10.332;2024-01-10T08:04:21;102302.28;;;17.54;33.74
78123;BME280;67376;44.802;10.332;2024-01-10T08:06:48;102302.41;;;17.69;34.39
78123;BME280;67376;44.802;10.332;2024-01-10T08:09:13;102304.19;;;17.76;34.79
78123;BME280;67376;44.802;10.332;2024-01-10T08:11:39;102313.44;;;17.82;34.61
78123;BME280;67376;44.802;10.332;2024-01-10T08:14:05;102314.41;;;17.89;35.31
78123;BME280;67376;44.802;10.332;2024-01-10T08:16:30;102308.63;;;17.92;35.12
78123;BME280;67376;44.802;10.332;2024-01-10T08:18:57;102313.66;;;17.95;35.26
78123;BME280;67376;44.802;10.332;2024-01-10T08:21:23;102310.41;;;18.00;35.11
78123;BME280;67376;44.802;10.332;2024-01-10T08:23:49;102318.34;;;18.01;34.85
78123;BME280;67376;44.802;10.332;2024-01-10T08:26:14;102324.22;;;18.05;35.30
78123;BME280;67376;44.802;10.332;2024-01-10T08:28:40;102331.31;;;18.06;35.25
78123;BME280;67376;44.802;10.332;2024-01-10T08:31:05;102333.47;;;18.10;35.25
78123;BME280;67376;44.802;10.332;2024-01-10T08:33:30;102336.84;;;18.12;35.29
78123;BME280;67376;44.802;10.332;2024-01-10T08:35:56;102330.88;;;18.17;34.43
78123;BME280;67376;44.802;10.332;2024-01-10T08:38:21;102333.41;;;18.19;34.48
78123;BME280;67376;44.802;10.332;2024-01-10T08:40:46;102331.34;;;18.21;35.14
78123;BME280;67376;44.802;10.332;2024-01-10T08:43:12;102332.69;;;18.25;35.13
78123;BME280;67376;44.802;10.332;2024-01-10T08:45:38;102333.50;;;18.25;35.39
78123;BME280;67376;44.802;10.332;2024-01-10T08:48:03;102338.56;;;18.28;34.23
78123;BME280;67376;44.802;10.332;2024-01-10T08:50:29;102330.75;;;18.33;34.40
78123;BME280;67376;44.802;10.332;2024-01-10T08:52:55;102337.00;;;18.34;35.28
78123;BME280;67376;44.802;10.332;2024-01-10T08:55:21;102331.56;;;18.34;34.45
78123;BME280;67376;44.802;10.332;2024-01-10T08:57:46;102334.09;;;18.35;35.20
78123;BME280;67376;44.802;10.332;2024-01-10T09:00:14;102340.16;;;18.37;34.94
78123;BME280;67376;44.802;10.332;2024-01-10T09:02:39;102346.03;;;18.41;35.16
78123;BME280;67376;44.802;10.332;2024-01-10T09:05:04;102356.31;;;18.45;34.16
78123;BME280;67376;44.802;10.332;2024-01-10T09:07:32;102357.34;;;18.44;35.46
78123;BME280;67376;44.802;10.332;2024-01-10T09:09:57;102353.63;;;18.45;35.13
78123;BME280;67376;44.802;10.332;2024-01-10T09:12:23;102359.19;;;18.44;35.37
78123;BME280;67376;44.802;10.332;2024-01-10T09:14:48;102355.47;;;18.45;34.49
78123;BME280;67376;44.802;10.332;2024-01-10T09:17:13;102362.75;;;18.44;35.29
78123;BME280;67376;44.802;10.332;2024-01-10T09:19:39;102368.81;;;18.46;35.48
78123;BME280;67376;44.802;10.332;2024-01-10T09:22:04;102367.97;;;18.46;34.54
78123;BME280;67376;44.802;10.332;2024-01-10T09:24:29;102373.19;;;18.47;34.78
78123;BME280;67376;44.802;10.332;2024-01-10T09:26:55;102380.25;;;18.48;35.26
78123;BME280;67376;44.802;10.332;2024-01-10T09:29:20;102373.28;;;18.54;34.42
78123;BME280;67376;44.802;10.332;2024-01-10T09:31:45;102379.06;;;18.51;35.40
78123;BME280;67376;44.802;10.332;2024-01-10T09:34:10;102376.34;;;18.51;34.54
78123;BME280;67376;44.802;10.332;2024-01-10T09:36:36;102385.50;;;18.50;34.94
78123;BME280;67376;44.802;10.332;2024-01-10T09:39:02;102395.69;;;18.48;35.32
78123;BME280;67376;44.802;10.332;2024-01-10T09:41:30;102389.03;;;18.51;34.30
78123;BME280;67376;44.802;10.332;2024-01-10T09:43:57;102386.97;;;18.53;34.50
78123;BME280;67376;44.802;10.332;2024-01-10T09:46:22;102388.00;;;18.52;35.18
78123;BME280;67376;44.802;10.332;2024-01-10T09:48:48;102388.84;;;18.52;35.35
78123;BME280;67376;44.802;10.332;2024-01-10T09:51:13;102389.22;;;18.49;34.77
78123;BME280;67376;44.802;10.332;2024-01-10T09:53:40;102381.75;;;18.51;35.31
78123;BME280;67376;44.802;10.332;2024-01-10T09:56:09;102381.75;;;18.51;35.36
78123;BME280;67376;44.802;10.332;2024-01-10T09:58:35;102382.59;;;18.52;34.60
78123;BME280;67376;44.802;10.332;2024-01-10T10:01:04;102389.44;;;18.47;35.50
78123;BME280;67376;44.802;10.332;2024-01-10T10:03:30;102382.59;;;18.52;34.53
78123;BME280;67376;44.802;10.332;2024-01-10T10:05:58;102379.06;;;18.51;34.58
78123;BME280;67376;44.802;10.332;2024-01-10T10:08:25;102381.56;;;18.53;34.42
78123;BME280;67376;44.802;10.332;2024-01-10T10:10:50;102379.34;;;18.56;34.68
78123;BME280;67376;44.802;10.332;2024-01-10T10:13:25;102393.72;;;18.57;35.08
78123;BME280;67376;44.802;10.332;2024-01-10T10:16:00;102389.78;;;18.44;34.47
78123;BME280;67376;44.802;10.332;2024-01-10T10:18:26;102388.66;;;18.39;35.42
78123;BME280;67376;44.802;10.332;2024-01-10T10:21:05;102387.28;;;18.43;34.71
78123;BME280;67376;44.802;10.332;2024-01-10T10:23:31;102393.19;;;18.61;34.45
78123;BME280;67376;44.802;10.332;2024-01-10T10:25:56;102385.91;;;18.62;34.96
78123;BME280;67376;44.802;10.332;2024-01-10T10:28:22;102388.13;;;18.58;33.55
78123;BME280;67376;44.802;10.332;2024-01-10T10:30:53;102382.16;;;18.48;32.88
78123;BME280;67376;44.802;10.332;2024-01-10T10:33:19;102387.75;;;18.46;34.42
78123;BME280;67376;44.802;10.332;2024-01-10T10:35:44;102383.53;;;18.44;35.04
78123;BME280;67376;44.802;10.332;2024-01-10T10:38:09;102383.38;;;18.45;35.90
78123;BME280;67376;44.802;10.332;2024-01-10T10:40:35;102382.69;;;18.43;35.82
78123;BME280;67376;44.802;10.332;2024-01-10T10:43:01;102379.16;;;18.43;34.75
78123;BME280;67376;44.802;10.332;2024-01-10T10:45:28;102378.50;;;18.41;34.59
78123;BME280;67376;44.802;10.332;2024-01-10T10:47:57;102389.50;;;18.39;35.34
78123;BME280;67376;44.802;10.332;2024-01-10T10:50:23;102380.53;;;18.39;36.09
78123;BME280;67376;44.802;10.332;2024-01-10T10:52:48;102383.72;;;18.42;36.49
78123;BME280;67376;44.802;10.332;2024-01-10T10:55:20;102372.63;;;18.37;34.18
78123;BME280;67376;44.802;10.332;2024-01-10T10:57:46;102385.13;;;18.38;35.47
78123;BME280;67376;44.802;10.332;2024-01-10T11:00:16;102373.09;;;18.41;33.98
78123;BME280;67376;44.802;10.332;2024-01-10T11:02:42;102374.13;;;18.40;33.17
78123;BME280;67376;44.802;10.332;2024-01-10T11:05:08;102364.63;;;18.44;32.69
78123;BME280;67376;44.802;10.332;2024-01-10T11:07:40;102367.31;;;18.44;35.23
78123;BME280;67376;44.802;10.332;2024-01-10T11:10:08;102369.38;;;18.42;32.87
78123;BME280;67376;44.802;10.332;2024-01-10T11:15:14;102372.06;;;18.42;31.48
78123;BME280;67376;44.802;10.332;2024-01-10T11:23:02;102360.22;;;18.43;35.94
78123;BME280;67376;44.802;10.332;2024-01-10T11:25:29;102364.44;;;18.45;36.11
78123;BME280;67376;44.802;10.332;2024-01-10T11:27:55;102353.44;;;18.47;35.43
78123;BME280;67376;44.802;10.332;2024-01-10T11:30:35;102350.06;;;18.45;36.54
78123;BME280;67376;44.802;10.332;2024-01-10T11:33:33;102349.06;;;18.61;48.66
78123;BME280;67376;44.802;10.332;2024-01-10T11:38:50;102345.88;;;18.57;41.98
78123;BME280;67376;44.802;10.332;2024-01-10T11:41:26;102336.06;;;18.56;40.91
78123;BME280;67376;44.802;10.332;2024-01-10T11:46:49;102324.78;;;18.53;40.24
78123;BME280;67376;44.802;10.332;2024-01-10T11:49:16;102330.38;;;18.51;40.00
78123;BME280;67376;44.802;10.332;2024-01-10T11:51:43;102323.69;;;18.47;39.61
78123;BME280;67376;44.802;10.332;2024-01-10T11:54:09;102320.75;;;18.48;39.52
78123;BME280;67376;44.802;10.332;2024-01-10T11:56:40;102318.91;;;18.49;37.99
78123;BME280;67376;44.802;10.332;2024-01-10T11:59:10;102313.88;;;18.46;37.80
78123;BME280;67376;44.802;10.332;2024-01-10T12:01:40;102313.69;;;18.47;37.93
78123;BME280;67376;44.802;10.332;2024-01-10T12:04:06;102307.63;;;18.45;36.74
78123;BME280;67376;44.802;10.332;2024-01-10T12:06:34;102312.47;;;18.50;36.10
78123;BME280;67376;44.802;10.332;2024-01-10T12:09:00;102306.03;;;18.51;35.16
78123;BME280;67376;44.802;10.332;2024-01-10T12:11:33;102300.81;;;18.49;34.49
78123;BME280;67376;44.802;10.332;2024-01-10T12:13:58;102295.50;;;18.41;36.83
78123;BME280;67376;44.802;10.332;2024-01-10T12:16:24;102297.84;;;18.44;38.64
78123;BME280;67376;44.802;10.332;2024-01-10T12:18:49;102294.13;;;18.45;38.13
78123;BME280;67376;44.802;10.332;2024-01-10T12:21:16;102294.78;;;18.47;38.35
78123;BME280;67376;44.802;10.332;2024-01-10T12:23:43;102282.72;;;18.50;38.63
78123;BME280;67376;44.802;10.332;2024-01-10T12:26:09;102280.41;;;18.47;38.09
78123;BME280;67376;44.802;10.332;2024-01-10T12:28:37;102278.13;;;18.51;37.83
78123;BME280;67376;44.802;10.332;2024-01-10T12:31:06;102276.28;;;18.51;36.96
78123;BME280;67376;44.802;10.332;2024-01-10T12:33:36;102283.56;;;18.51;37.35
78123;BME280;67376;44.802;10.332;2024-01-10T12:36:07;102282.16;;;18.55;37.37
78123;BME280;67376;44.802;10.332;2024-01-10T12:38:33;102275.06;;;18.54;37.63
78123;BME280;67376;44.802;10.332;2024-01-10T12:40:59;102266.94;;;18.54;37.51
78123;BME280;67376;44.802;10.332;2024-01-10T12:43:26;102265.09;;;18.54;37.76
78123;BME280;67376;44.802;10.332;2024-01-10T12:46:07;102268.63;;;18.55;37.38
78123;BME280;67376;44.802;10.332;2024-01-10T12:48:33;102268.81;;;18.53;37.32